createdAt,value
2017-12-08T00:00:52.913Z,1018.54
2017-12-08T00:01:52.899Z,1018.57
2017-12-08T00:02:52.892Z,1018.57
2017-12-08T00:03:52.878Z,1018.58
2017-12-08T00:04:52.867Z,1018.61
2017-12-08T00:05:52.853Z,1018.65
2017-12-08T00:06:52.839Z,1018.71
2017-12-08T00:07:52.829Z,1018.66
2017-12-08T00:08:52.818Z,1018.61
2017-12-08T00:09:52.808Z,1018.62
2017-12-08T00:10:52.795Z,1018.59
2017-12-08T00:11:52.785Z,1018.6
2017-12-08T00:12:52.773Z,1018.66
2017-12-08T00:13:52.762Z,1018.6
2017-12-08T00:14:52.746Z,1018.62
2017-12-08T00:15:52.735Z,1018.6
2017-12-08T00:16:52.726Z,1018.64
2017-12-08T00:17:52.715Z,1018.63
2017-12-08T00:18:52.701Z,1018.58
2017-12-08T00:19:52.691Z,1018.58
2017-12-08T00:20:52.677Z,1018.52
2017-12-08T00:21:52.667Z,1018.51
2017-12-08T00:22:52.652Z,1018.54
2017-12-08T00:23:52.641Z,1018.52
2017-12-08T00:24:52.631Z,1018.57
2017-12-08T00:25:52.620Z,1018.52
2017-12-08T00:26:52.606Z,1018.51
2017-12-08T00:27:52.594Z,1018.5
2017-12-08T00:28:52.590Z,1018.52
2017-12-08T00:29:52.570Z,1018.55
2017-12-08T00:30:52.562Z,1018.6
2017-12-08T00:31:52.549Z,1018.63
2017-12-08T00:32:52.541Z,1018.62
2017-12-08T00:33:52.528Z,1018.56
2017-12-08T00:34:52.518Z,1018.59
2017-12-08T00:35:52.504Z,1018.6
2017-12-08T00:36:52.493Z,1018.58
2017-12-08T00:37:52.478Z,1018.62
2017-12-08T00:38:52.467Z,1018.61
2017-12-08T00:39:52.457Z,1018.62
2017-12-08T00:40:52.447Z,1018.64
2017-12-08T00:41:52.435Z,1018.63
2017-12-08T00:42:52.421Z,1018.67
2017-12-08T00:43:52.408Z,1018.66
2017-12-08T00:44:52.399Z,1018.69
2017-12-08T00:45:52.388Z,1018.7
2017-12-08T00:46:52.372Z,1018.67
2017-12-08T00:47:52.364Z,1018.66
2017-12-08T00:48:52.351Z,1018.7
2017-12-08T00:49:52.343Z,1018.71
2017-12-08T00:50:52.325Z,1018.71
2017-12-08T00:51:52.313Z,1018.66
2017-12-08T00:52:52.305Z,1018.66
2017-12-08T00:53:52.289Z,1018.6
2017-12-08T00:54:52.281Z,1018.58
2017-12-08T00:55:52.268Z,1018.61
2017-12-08T00:56:52.254Z,1018.57
2017-12-08T00:57:52.241Z,1018.59
2017-12-08T00:58:52.233Z,1018.54
2017-12-08T00:59:52.219Z,1018.56
2017-12-08T01:00:52.208Z,1018.5
2017-12-08T01:01:52.197Z,1018.43
2017-12-08T01:02:52.190Z,1018.39
2017-12-08T01:03:52.186Z,1018.37
2017-12-08T01:04:52.159Z,1018.36
2017-12-08T01:05:52.150Z,1018.38
2017-12-08T01:06:52.137Z,1018.37
2017-12-08T01:07:52.129Z,1018.39
2017-12-08T01:08:52.113Z,1018.39
2017-12-08T01:09:52.103Z,1018.31
2017-12-08T01:10:52.098Z,1018.34
2017-12-08T01:11:52.080Z,1018.31
2017-12-08T01:12:52.068Z,1018.34
2017-12-08T01:13:52.057Z,1018.26
2017-12-08T01:14:52.047Z,1018.25
2017-12-08T01:15:52.036Z,1018.2
2017-12-08T01:16:52.018Z,1018.19
2017-12-08T01:17:52.008Z,1018.16
2017-12-08T01:18:51.996Z,1018.14
2017-12-08T01:19:51.987Z,1018.18
2017-12-08T01:20:51.971Z,1018.11
2017-12-08T01:21:51.960Z,1018.13
2017-12-08T01:22:51.953Z,1018.12
2017-12-08T01:23:51.936Z,1018.15
2017-12-08T01:24:51.926Z,1018.17
2017-12-08T01:25:51.917Z,1018.16
2017-12-08T01:26:51.904Z,1018.17
2017-12-08T01:27:51.889Z,1018.19
2017-12-08T01:28:51.878Z,1018.19
2017-12-08T01:29:51.868Z,1018.16
2017-12-08T01:30:51.857Z,1018.21
2017-12-08T01:31:51.846Z,1018.2
2017-12-08T01:32:51.832Z,1018.17
2017-12-08T01:33:51.823Z,1018.16
2017-12-08T01:34:51.811Z,1018.16
2017-12-08T01:35:51.798Z,1018.21
2017-12-08T01:36:51.789Z,1018.13
2017-12-08T01:37:51.774Z,1018.1
2017-12-08T01:38:51.762Z,1018.03
2017-12-08T01:39:51.753Z,1018.03
2017-12-08T01:40:51.739Z,1018.05
2017-12-08T01:41:51.731Z,1018.08
2017-12-08T01:42:51.718Z,1018.06
2017-12-08T01:43:51.703Z,1018.05
2017-12-08T01:44:51.693Z,1017.99
2017-12-08T01:45:51.680Z,1017.99
2017-12-08T01:46:51.670Z,1017.96
2017-12-08T01:47:51.661Z,1017.9
2017-12-08T01:48:51.651Z,1017.96
2017-12-08T01:49:51.637Z,1017.85
2017-12-08T01:50:51.622Z,1017.88
2017-12-08T01:51:51.612Z,1017.87
2017-12-08T01:52:51.602Z,1017.82
2017-12-08T01:53:51.588Z,1017.86
2017-12-08T01:54:51.578Z,1017.91
2017-12-08T01:55:51.568Z,1017.85
2017-12-08T01:56:51.553Z,1017.83
2017-12-08T01:57:51.544Z,1017.84
2017-12-08T01:58:51.531Z,1017.81
2017-12-08T01:59:51.522Z,1017.76
2017-12-08T02:00:51.507Z,1017.76
2017-12-08T02:01:51.499Z,1017.81
2017-12-08T02:02:51.486Z,1017.76
2017-12-08T02:03:51.476Z,1017.83
2017-12-08T02:04:51.464Z,1017.85
2017-12-08T02:05:51.450Z,1017.82
2017-12-08T02:06:51.439Z,1017.84
2017-12-08T02:07:51.430Z,1017.82
2017-12-08T02:08:51.417Z,1017.77
2017-12-08T02:09:51.406Z,1017.79
2017-12-08T02:10:51.395Z,1017.79
2017-12-08T02:11:51.380Z,1017.79
2017-12-08T02:12:51.372Z,1017.74
2017-12-08T02:13:51.359Z,1017.79
2017-12-08T02:14:51.346Z,1017.79
2017-12-08T02:15:51.338Z,1017.77
2017-12-08T02:16:51.322Z,1017.82
2017-12-08T02:17:51.313Z,1017.83
2017-12-08T02:18:51.303Z,1017.8
2017-12-08T02:19:51.288Z,1017.78
2017-12-08T02:20:51.278Z,1017.79
2017-12-08T02:21:51.265Z,1017.79
2017-12-08T02:22:51.254Z,1017.75
2017-12-08T02:23:51.245Z,1017.69
2017-12-08T02:24:51.231Z,1017.7
2017-12-08T02:25:51.218Z,1017.71
2017-12-08T02:26:51.207Z,1017.7
2017-12-08T02:27:51.200Z,1017.78
2017-12-08T02:28:51.186Z,1017.72
2017-12-08T02:29:51.173Z,1017.72
2017-12-08T02:30:51.164Z,1017.75
2017-12-08T02:31:51.150Z,1017.77
2017-12-08T02:32:51.139Z,1017.8
2017-12-08T02:33:51.127Z,1017.72
2017-12-08T02:34:51.116Z,1017.72
2017-12-08T02:35:51.104Z,1017.7
2017-12-08T02:36:51.095Z,1017.66
2017-12-08T02:37:51.080Z,1017.7
2017-12-08T02:38:51.070Z,1017.7
2017-12-08T02:39:51.060Z,1017.65
2017-12-08T02:40:51.049Z,1017.66
2017-12-08T02:41:51.037Z,1017.64
2017-12-08T02:42:51.023Z,1017.65
2017-12-08T02:43:51.014Z,1017.65
2017-12-08T02:44:51.001Z,1017.65
2017-12-08T02:45:50.987Z,1017.6
2017-12-08T02:46:50.978Z,1017.64
2017-12-08T02:47:50.971Z,1017.6
2017-12-08T02:48:50.954Z,1017.6
2017-12-08T02:49:50.946Z,1017.58
2017-12-08T02:50:50.935Z,1017.59
2017-12-08T02:51:50.923Z,1017.62
2017-12-08T02:52:50.909Z,1017.53
2017-12-08T02:53:50.898Z,1017.53
2017-12-08T02:54:50.886Z,1017.59
2017-12-08T02:55:50.876Z,1017.59
2017-12-08T02:56:50.862Z,1017.6
2017-12-08T02:57:50.852Z,1017.58
2017-12-08T02:58:50.839Z,1017.58
2017-12-08T02:59:50.830Z,1017.5
2017-12-08T03:00:50.817Z,1017.45
2017-12-08T03:01:50.806Z,1017.38
2017-12-08T03:02:50.796Z,1017.35
2017-12-08T03:03:50.783Z,1017.27
2017-12-08T03:04:50.772Z,1017.26
2017-12-08T03:05:50.762Z,1017.19
2017-12-08T03:06:50.750Z,1017.23
2017-12-08T03:07:50.738Z,1017.16
2017-12-08T03:08:50.729Z,1017.14
2017-12-08T03:09:50.718Z,1017.12
2017-12-08T03:10:50.705Z,1017.04
2017-12-08T03:11:50.691Z,1016.98
2017-12-08T03:12:50.683Z,1017.08
2017-12-08T03:13:50.672Z,1017.1
2017-12-08T03:14:50.662Z,1017.16
2017-12-08T03:15:50.647Z,1017.17
2017-12-08T03:16:50.635Z,1017.21
2017-12-08T03:17:50.626Z,1017.18
2017-12-08T03:18:50.613Z,1017.22
2017-12-08T03:19:50.602Z,1017.16
2017-12-08T03:20:50.591Z,1017.11
2017-12-08T03:21:50.580Z,1017.1
2017-12-08T03:22:50.567Z,1017.05
2017-12-08T03:23:50.558Z,1017.09
2017-12-08T03:24:50.545Z,1017.01
2017-12-08T03:25:50.533Z,1017.1
2017-12-08T03:26:50.525Z,1017.17
2017-12-08T03:27:50.513Z,1017.26
2017-12-08T03:28:50.499Z,1017.23
2017-12-08T03:29:50.490Z,1017.29
2017-12-08T03:30:50.478Z,1017.22
2017-12-08T03:31:50.466Z,1017.2
2017-12-08T03:32:50.453Z,1017.33
2017-12-08T03:33:50.441Z,1017.32
2017-12-08T03:34:50.432Z,1017.28
2017-12-08T03:35:50.422Z,1017.25
2017-12-08T03:36:50.411Z,1017.22
2017-12-08T03:37:50.403Z,1017.16
2017-12-08T03:38:50.385Z,1017.19
2017-12-08T03:39:50.387Z,1017.28
2017-12-08T03:40:50.365Z,1017.28
2017-12-08T03:41:50.355Z,1017.28
2017-12-08T03:42:50.340Z,1017.33
2017-12-08T03:43:50.332Z,1017.33
2017-12-08T03:44:50.321Z,1017.32
2017-12-08T03:45:50.308Z,1017.19
2017-12-08T03:46:50.297Z,1017.21
2017-12-08T03:47:50.287Z,1017.17
2017-12-08T03:48:50.273Z,1017.13
2017-12-08T03:49:50.264Z,1017.16
2017-12-08T03:50:50.252Z,1017.07
2017-12-08T03:51:50.240Z,1017.08
2017-12-08T03:52:50.228Z,1017.05
2017-12-08T03:53:50.215Z,1016.96
2017-12-08T03:54:50.204Z,1016.96
2017-12-08T03:55:50.197Z,1016.95
2017-12-08T03:56:50.185Z,1016.98
2017-12-08T03:57:50.172Z,1016.99
2017-12-08T03:58:50.159Z,1016.98
2017-12-08T03:59:50.149Z,1017.05
2017-12-08T04:00:50.135Z,1017.05
2017-12-08T04:01:50.125Z,1017.14
2017-12-08T04:02:50.114Z,1017.13
2017-12-08T04:03:50.101Z,1017.04
2017-12-08T04:04:50.091Z,1017.05
2017-12-08T04:05:50.083Z,1017.06
2017-12-08T04:06:50.068Z,1017.01
2017-12-08T04:07:50.058Z,1017.02
2017-12-08T04:08:50.045Z,1017
2017-12-08T04:09:50.033Z,1017.1
2017-12-08T04:10:50.023Z,1017.14
2017-12-08T04:11:50.012Z,1017.17
2017-12-08T04:12:50.003Z,1017.25
2017-12-08T04:13:49.990Z,1017.33
2017-12-08T04:14:49.981Z,1017.43
2017-12-08T04:15:49.966Z,1017.47
2017-12-08T04:16:49.955Z,1017.54
2017-12-08T04:17:49.944Z,1017.59
2017-12-08T04:18:49.935Z,1017.68
2017-12-08T04:19:49.922Z,1017.77
2017-12-08T04:20:49.909Z,1017.82
2017-12-08T04:21:49.898Z,1017.89
2017-12-08T04:22:49.889Z,1017.93
2017-12-08T04:23:49.877Z,1018
2017-12-08T04:24:49.863Z,1018.07
2017-12-08T04:25:49.850Z,1018.11
2017-12-08T04:26:49.842Z,1018.21
2017-12-08T04:27:49.836Z,1018.25
2017-12-08T04:28:49.819Z,1018.29
2017-12-08T04:29:49.803Z,1018.31
2017-12-08T04:30:49.795Z,1018.36
2017-12-08T04:31:49.786Z,1018.36
2017-12-08T04:32:49.770Z,1018.34
2017-12-08T04:33:49.758Z,1018.31
2017-12-08T04:34:49.748Z,1018.28
2017-12-08T04:35:49.735Z,1018.19
2017-12-08T04:36:49.720Z,1018.14
2017-12-08T04:37:49.708Z,1018.09
2017-12-08T04:38:49.697Z,1018.09
2017-12-08T04:39:49.685Z,1018.01
2017-12-08T04:40:49.672Z,1018.04
2017-12-08T04:41:49.663Z,1018.05
2017-12-08T04:42:49.648Z,1018.04
2017-12-08T04:43:49.640Z,1017.99
2017-12-08T04:44:49.626Z,1017.99
2017-12-08T04:45:49.613Z,1017.99
2017-12-08T04:46:49.603Z,1018.1
2017-12-08T04:47:49.588Z,1018.09
2017-12-08T04:48:49.576Z,1018.12
2017-12-08T04:49:49.565Z,1018.11
2017-12-08T04:50:49.556Z,1018.15
2017-12-08T04:51:49.540Z,1018.17
2017-12-08T04:52:49.529Z,1018.19
2017-12-08T04:53:49.517Z,1018.21
2017-12-08T04:54:49.505Z,1018.22
2017-12-08T04:55:49.494Z,1018.27
2017-12-08T04:56:49.484Z,1018.3
2017-12-08T04:57:49.471Z,1018.34
2017-12-08T04:58:49.455Z,1018.41
2017-12-08T04:59:49.447Z,1018.48
2017-12-08T05:00:49.436Z,1018.6
2017-12-08T05:01:49.425Z,1018.63
2017-12-08T05:02:49.409Z,1018.66
2017-12-08T05:03:49.398Z,1018.72
2017-12-08T05:04:49.392Z,1018.76
2017-12-08T05:05:49.374Z,1018.81
2017-12-08T05:06:49.358Z,1018.84
2017-12-08T05:07:49.349Z,1018.84
2017-12-08T05:08:49.335Z,1018.87
2017-12-08T05:09:49.322Z,1018.83
2017-12-08T05:10:49.310Z,1018.86
2017-12-08T05:11:49.300Z,1018.92
2017-12-08T05:12:49.286Z,1018.94
2017-12-08T05:13:49.273Z,1019.02
2017-12-08T05:14:49.261Z,1019.03
2017-12-08T05:15:49.248Z,1019.04
2017-12-08T05:16:49.236Z,1019
2017-12-08T05:17:49.226Z,1019.06
2017-12-08T05:18:49.214Z,1019.06
2017-12-08T05:19:49.202Z,1019.07
2017-12-08T05:20:49.188Z,1019.07
2017-12-08T05:21:49.173Z,1019.04
2017-12-08T05:22:49.162Z,1019.06
2017-12-08T05:23:49.149Z,1019.01
2017-12-08T05:24:49.135Z,1018.97
2017-12-08T05:25:49.126Z,1018.94
2017-12-08T05:26:49.112Z,1018.86
2017-12-08T05:27:49.098Z,1018.79
2017-12-08T05:28:49.089Z,1018.71
2017-12-08T05:29:49.073Z,1018.67
2017-12-08T05:30:49.061Z,1018.62
2017-12-08T05:31:49.050Z,1018.55
2017-12-08T05:32:49.038Z,1018.45
2017-12-08T05:33:49.025Z,1018.4
2017-12-08T05:34:49.012Z,1018.35
2017-12-08T05:35:49.000Z,1018.3
2017-12-08T05:36:48.988Z,1018.29
2017-12-08T05:37:48.972Z,1018.29
2017-12-08T05:38:48.960Z,1018.25
2017-12-08T05:39:48.950Z,1018.21
2017-12-08T05:40:48.938Z,1018.23
2017-12-08T05:41:48.924Z,1018.24
2017-12-08T05:42:48.910Z,1018.2
2017-12-08T05:43:48.901Z,1018.17
2017-12-08T05:44:48.887Z,1018.11
2017-12-08T05:45:48.874Z,1018.07
2017-12-08T05:46:48.863Z,1018.04
2017-12-08T05:47:48.850Z,1018
2017-12-08T05:48:48.840Z,1017.98
2017-12-08T05:49:48.825Z,1017.95
2017-12-08T05:50:48.813Z,1017.99
2017-12-08T05:51:48.803Z,1017.99
2017-12-08T05:52:48.793Z,1017.96
2017-12-08T05:53:48.775Z,1017.86
2017-12-08T05:54:48.766Z,1017.85
2017-12-08T05:55:48.808Z,1017.88
2017-12-08T05:56:48.743Z,1017.86
2017-12-08T05:57:48.727Z,1017.94
2017-12-08T05:58:48.719Z,1017.93
2017-12-08T05:59:48.708Z,1017.96
2017-12-08T06:00:48.692Z,1017.89
2017-12-08T06:01:48.681Z,1018.01
2017-12-08T06:02:48.670Z,1017.98
2017-12-08T06:03:48.657Z,1017.99
2017-12-08T06:04:48.644Z,1018
2017-12-08T06:05:48.636Z,1018.05
2017-12-08T06:06:48.622Z,1018.12
2017-12-08T06:07:48.610Z,1018.18
2017-12-08T06:08:48.600Z,1018.15
2017-12-08T06:09:48.586Z,1018.21
2017-12-08T06:10:48.575Z,1018.16
2017-12-08T06:11:48.561Z,1018.15
2017-12-08T06:12:48.553Z,1018.12
2017-12-08T06:13:48.539Z,1018.09
2017-12-08T06:14:48.526Z,1018.05
2017-12-08T06:15:48.517Z,1018
2017-12-08T06:16:48.503Z,1017.99
2017-12-08T06:17:48.494Z,1017.99
2017-12-08T06:18:48.480Z,1018.02
2017-12-08T06:19:48.471Z,1017.98
2017-12-08T06:20:48.457Z,1017.92
2017-12-08T06:21:48.446Z,1017.89
2017-12-08T06:22:48.435Z,1017.94
2017-12-08T06:23:48.423Z,1017.81
2017-12-08T06:24:48.412Z,1017.83
2017-12-08T06:25:48.401Z,1017.81
2017-12-08T06:26:48.389Z,1017.82
2017-12-08T06:27:48.383Z,1017.83
2017-12-08T06:28:48.364Z,1017.84
2017-12-08T06:29:48.351Z,1017.87
2017-12-08T06:30:48.340Z,1017.81
2017-12-08T06:31:48.330Z,1017.84
2017-12-08T06:32:48.318Z,1017.81
2017-12-08T06:33:48.307Z,1017.77
2017-12-08T06:34:48.298Z,1017.74
2017-12-08T06:35:48.301Z,1017.76
2017-12-08T06:36:48.274Z,1017.82
2017-12-08T06:37:48.260Z,1017.82
2017-12-08T06:38:48.248Z,1017.83
2017-12-08T06:39:48.237Z,1017.84
2017-12-08T06:40:48.225Z,1017.8
2017-12-08T06:41:48.213Z,1017.78
2017-12-08T06:42:48.204Z,1017.78
2017-12-08T06:43:48.190Z,1017.76
2017-12-08T06:44:48.181Z,1017.87
2017-12-08T06:45:48.170Z,1017.94
2017-12-08T06:46:48.156Z,1018.07
2017-12-08T06:47:48.147Z,1018.15
2017-12-08T06:48:48.139Z,1018.24
2017-12-08T06:49:48.124Z,1018.32
2017-12-08T06:50:48.111Z,1018.37
2017-12-08T06:51:48.103Z,1018.5
2017-12-08T06:52:48.091Z,1018.58
2017-12-08T06:53:48.081Z,1018.64
2017-12-08T06:54:48.065Z,1018.74
2017-12-08T06:55:48.057Z,1018.86
2017-12-08T06:56:48.042Z,1018.91
2017-12-08T06:57:48.038Z,1019.01
2017-12-08T06:58:48.022Z,1019.03
2017-12-08T06:59:48.010Z,1019.14
2017-12-08T07:00:47.996Z,1019.2
2017-12-08T07:01:47.983Z,1019.17
2017-12-08T07:02:47.972Z,1019.17
2017-12-08T07:03:47.962Z,1019.17
2017-12-08T07:04:47.949Z,1019.09
2017-12-08T07:05:47.938Z,1019.08
2017-12-08T07:06:47.927Z,1019.11
2017-12-08T07:07:47.910Z,1019.1
2017-12-08T07:08:47.901Z,1019.19
2017-12-08T07:09:47.887Z,1019.22
2017-12-08T07:10:47.876Z,1019.29
2017-12-08T07:11:47.871Z,1019.32
2017-12-08T07:12:47.855Z,1019.26
2017-12-08T07:13:47.839Z,1019.3
2017-12-08T07:14:47.828Z,1019.43
2017-12-08T07:15:47.817Z,1019.42
2017-12-08T07:16:47.802Z,1019.47
2017-12-08T07:17:47.788Z,1019.48
2017-12-08T07:18:47.776Z,1019.49
2017-12-08T07:19:47.773Z,1019.55
2017-12-08T07:20:47.755Z,1019.55
2017-12-08T07:21:47.741Z,1019.56
2017-12-08T07:22:47.726Z,1019.56
2017-12-08T07:23:47.717Z,1019.6
2017-12-08T07:24:47.701Z,1019.65
2017-12-08T07:25:47.691Z,1019.7
2017-12-08T07:26:47.677Z,1019.7
2017-12-08T07:27:47.667Z,1019.77
2017-12-08T07:28:47.651Z,1019.74
2017-12-08T07:29:47.639Z,1019.79
2017-12-08T07:30:47.629Z,1019.8
2017-12-08T07:31:47.617Z,1019.8
2017-12-08T07:32:47.600Z,1019.78
2017-12-08T07:33:47.595Z,1019.78
2017-12-08T07:34:47.576Z,1019.79
2017-12-08T07:35:47.566Z,1019.81
2017-12-08T07:36:47.549Z,1019.82
2017-12-08T07:37:47.540Z,1019.82
2017-12-08T07:38:47.530Z,1019.86
2017-12-08T07:39:47.511Z,1019.86
2017-12-08T07:40:47.503Z,1019.86
2017-12-08T07:41:47.488Z,1019.83
2017-12-08T07:42:47.476Z,1019.86
2017-12-08T07:43:47.462Z,1019.91
2017-12-08T07:44:47.451Z,1019.85
2017-12-08T07:45:47.435Z,1019.88
2017-12-08T07:46:47.424Z,1019.84
2017-12-08T07:47:47.412Z,1019.83
2017-12-08T07:48:47.401Z,1019.85
2017-12-08T07:49:47.384Z,1019.89
2017-12-08T07:50:47.371Z,1019.89
2017-12-08T07:51:47.358Z,1019.9
2017-12-08T07:52:47.345Z,1019.92
2017-12-08T07:53:47.332Z,1019.93
2017-12-08T07:54:47.319Z,1019.98
2017-12-08T07:55:47.309Z,1019.96
2017-12-08T07:56:47.293Z,1019.96
2017-12-08T07:57:47.283Z,1019.93
2017-12-08T07:58:47.269Z,1019.91
2017-12-08T07:59:47.257Z,1019.93
2017-12-08T08:00:47.242Z,1019.9
2017-12-08T08:01:47.232Z,1019.92
2017-12-08T08:02:47.218Z,1019.88
2017-12-08T08:03:47.212Z,1019.86
2017-12-08T08:04:47.191Z,1019.79
2017-12-08T08:05:47.178Z,1019.79
2017-12-08T08:06:47.166Z,1019.76
2017-12-08T08:07:47.151Z,1019.78
2017-12-08T08:08:47.138Z,1019.79
2017-12-08T08:09:47.145Z,1019.73
2017-12-08T08:10:47.117Z,1019.72
2017-12-08T08:11:47.102Z,1019.75
2017-12-08T08:12:47.089Z,1019.78
2017-12-08T08:13:47.073Z,1019.76
2017-12-08T08:14:47.060Z,1019.78
2017-12-08T08:15:47.052Z,1019.8
2017-12-08T08:16:47.037Z,1019.8
2017-12-08T08:17:47.027Z,1019.78
2017-12-08T08:18:47.016Z,1019.81
2017-12-08T08:19:46.996Z,1019.78
2017-12-08T08:20:46.984Z,1019.77
2017-12-08T08:21:46.974Z,1019.8
2017-12-08T08:22:46.961Z,1019.81
2017-12-08T08:23:46.951Z,1019.76
2017-12-08T08:24:46.935Z,1019.72
2017-12-08T08:25:46.920Z,1019.71
2017-12-08T08:26:46.908Z,1019.67
2017-12-08T08:27:46.894Z,1019.67
2017-12-08T08:28:46.938Z,1019.66
2017-12-08T08:29:46.872Z,1019.69
2017-12-08T08:30:46.857Z,1019.71
2017-12-08T08:31:46.858Z,1019.66
2017-12-08T08:32:46.833Z,1019.69
2017-12-08T08:33:46.821Z,1019.64
2017-12-08T08:34:46.808Z,1019.6
2017-12-08T08:35:46.797Z,1019.64
2017-12-08T08:36:46.783Z,1019.64
2017-12-08T08:37:46.770Z,1019.64
2017-12-08T08:38:46.755Z,1019.62
2017-12-08T08:39:46.743Z,1019.64
2017-12-08T08:40:46.733Z,1019.65
2017-12-08T08:41:46.727Z,1019.65
2017-12-08T08:42:46.704Z,1019.68
2017-12-08T08:43:46.695Z,1019.67
2017-12-08T08:44:46.697Z,1019.62
2017-12-08T08:45:46.678Z,1019.65
2017-12-08T08:46:46.655Z,1019.65
2017-12-08T08:47:46.643Z,1019.7
2017-12-08T08:48:46.632Z,1019.66
2017-12-08T08:49:46.618Z,1019.67
2017-12-08T08:50:46.607Z,1019.68
2017-12-08T08:51:46.594Z,1019.67
2017-12-08T08:52:46.578Z,1019.69
2017-12-08T08:53:46.567Z,1019.66
2017-12-08T08:54:46.553Z,1019.63
2017-12-08T08:55:46.547Z,1019.64
2017-12-08T08:56:46.531Z,1019.62
2017-12-08T08:57:46.519Z,1019.6
2017-12-08T08:58:46.505Z,1019.61
2017-12-08T08:59:46.504Z,1019.63
2017-12-08T09:00:46.494Z,1019.59
2017-12-08T09:01:46.470Z,1019.58
2017-12-08T09:02:46.470Z,1019.61
2017-12-08T09:03:46.444Z,1019.62
2017-12-08T09:04:46.433Z,1019.62
2017-12-08T09:05:46.433Z,1019.61
2017-12-08T09:06:46.410Z,1019.6
2017-12-08T09:07:46.424Z,1019.59
2017-12-08T09:08:46.401Z,1019.62
2017-12-08T09:09:46.369Z,1019.61
2017-12-08T09:10:46.361Z,1019.58
2017-12-08T09:11:46.344Z,1019.57
2017-12-08T09:12:46.336Z,1019.54
2017-12-08T09:13:46.322Z,1019.57
2017-12-08T09:14:46.310Z,1019.6
2017-12-08T09:15:46.297Z,1019.61
2017-12-08T09:16:46.284Z,1019.58
2017-12-08T09:17:46.271Z,1019.6
2017-12-08T09:18:46.271Z,1019.54
2017-12-08T09:19:46.250Z,1019.52
2017-12-08T09:20:46.237Z,1019.49
2017-12-08T09:21:46.224Z,1019.48
2017-12-08T09:22:46.221Z,1019.52
2017-12-08T09:23:46.200Z,1019.44
2017-12-08T09:24:46.185Z,1019.45
2017-12-08T09:25:46.183Z,1019.47
2017-12-08T09:26:46.162Z,1019.42
2017-12-08T09:27:46.154Z,1019.43
2017-12-08T09:28:46.138Z,1019.36
2017-12-08T09:29:46.136Z,1019.37
2017-12-08T09:30:46.115Z,1019.29
2017-12-08T09:31:46.103Z,1019.24
2017-12-08T09:32:46.093Z,1019.29
2017-12-08T09:33:46.081Z,1019.29
2017-12-08T09:34:46.069Z,1019.28
2017-12-08T09:35:46.058Z,1019.23
2017-12-08T09:36:46.045Z,1019.21
2017-12-08T09:37:46.033Z,1019.19
2017-12-08T09:38:46.022Z,1019.23
2017-12-08T09:39:46.008Z,1019.24
2017-12-08T09:40:46.009Z,1019.31
2017-12-08T09:41:45.991Z,1019.27
2017-12-08T09:42:45.990Z,1019.27
2017-12-08T09:43:45.961Z,1019.31
2017-12-08T09:44:45.966Z,1019.27
2017-12-08T09:45:45.943Z,1019.31
2017-12-08T09:46:45.929Z,1019.28
2017-12-08T09:47:45.914Z,1019.24
2017-12-08T09:48:45.904Z,1019.29
2017-12-08T09:49:45.895Z,1019.24
2017-12-08T09:50:45.894Z,1019.28
2017-12-08T09:51:45.872Z,1019.27
2017-12-08T09:52:45.863Z,1019.32
2017-12-08T09:53:45.847Z,1019.27
2017-12-08T09:54:45.853Z,1019.26
2017-12-08T09:55:45.839Z,1019.26
2017-12-08T09:56:45.819Z,1019.2
2017-12-08T09:57:45.797Z,1019.24
2017-12-08T09:58:45.804Z,1019.18
2017-12-08T09:59:45.788Z,1019.15
2017-12-08T10:00:45.763Z,1019.18
2017-12-08T10:01:45.752Z,1019.15
2017-12-08T10:02:45.742Z,1019.15
2017-12-08T10:03:45.729Z,1019.17
2017-12-08T10:04:45.717Z,1019.18
2017-12-08T10:05:45.716Z,1019.11
2017-12-08T10:06:45.721Z,1019.17
2017-12-08T10:07:45.700Z,1019.12
2017-12-08T10:08:45.671Z,1019.08
2017-12-08T10:09:45.675Z,1018.95
2017-12-08T10:10:45.650Z,1018.88
2017-12-08T10:11:45.639Z,1018.92
2017-12-08T10:12:45.626Z,1018.85
2017-12-08T10:13:45.621Z,1018.83
2017-12-08T10:14:45.611Z,1018.73
2017-12-08T10:15:45.600Z,1018.64
2017-12-08T10:16:45.586Z,1018.58
2017-12-08T10:17:45.570Z,1018.59
2017-12-08T10:18:45.568Z,1018.48
2017-12-08T10:19:45.542Z,1018.49
2017-12-08T10:20:45.533Z,1018.48
2017-12-08T10:21:45.522Z,1018.4
2017-12-08T10:22:45.525Z,1018.34
2017-12-08T10:23:45.500Z,1018.35
2017-12-08T10:24:45.508Z,1018.28
2017-12-08T10:25:45.496Z,1018.32
2017-12-08T10:26:45.465Z,1018.27
2017-12-08T10:27:45.473Z,1018.17
2017-12-08T10:28:45.454Z,1018.24
2017-12-08T10:29:45.432Z,1018.16
2017-12-08T10:30:45.421Z,1018.16
2017-12-08T10:31:45.413Z,1018.05
2017-12-08T10:32:45.401Z,1017.87
2017-12-08T10:33:45.404Z,1017.85
2017-12-08T10:34:45.393Z,1017.73
2017-12-08T10:35:45.384Z,1017.84
2017-12-08T10:36:45.368Z,1017.77
2017-12-08T10:37:45.364Z,1017.81
2017-12-08T10:38:45.342Z,1017.79
2017-12-08T10:39:45.338Z,1017.7
2017-12-08T10:40:45.313Z,1017.67
2017-12-08T10:41:45.302Z,1017.65
2017-12-08T10:42:45.308Z,1017.69
2017-12-08T10:43:45.289Z,1017.65
2017-12-08T10:44:45.267Z,1017.65
2017-12-08T10:45:45.260Z,1017.72
2017-12-08T10:46:45.264Z,1017.72
2017-12-08T10:47:45.237Z,1017.74
2017-12-08T10:48:45.230Z,1017.71
2017-12-08T10:49:45.214Z,1017.65
2017-12-08T10:50:45.203Z,1017.58
2017-12-08T10:51:45.202Z,1017.52
2017-12-08T10:52:45.187Z,1017.51
2017-12-08T10:53:45.200Z,1017.46
2017-12-08T10:54:45.180Z,1017.49
2017-12-08T10:55:45.156Z,1017.44
2017-12-08T10:56:45.175Z,1017.42
2017-12-08T10:57:45.134Z,1017.44
2017-12-08T10:58:45.119Z,1017.45
2017-12-08T10:59:45.111Z,1017.47
2017-12-08T11:00:45.101Z,1017.4
2017-12-08T11:01:45.092Z,1017.54
2017-12-08T11:02:45.081Z,1017.54
2017-12-08T11:03:45.075Z,1017.57
2017-12-08T11:04:45.080Z,1017.56
2017-12-08T11:05:45.054Z,1017.52
2017-12-08T11:06:45.039Z,1017.45
2017-12-08T11:07:45.032Z,1017.39
2017-12-08T11:08:45.018Z,1017.3
2017-12-08T11:09:45.009Z,1017.25
2017-12-08T11:10:44.999Z,1017.28
2017-12-08T11:11:44.991Z,1017.27
2017-12-08T11:12:44.985Z,1017.2
2017-12-08T11:13:44.968Z,1017.21
2017-12-08T11:14:44.959Z,1017.14
2017-12-08T11:15:44.952Z,1017.07
2017-12-08T11:16:44.941Z,1017.06
2017-12-08T11:17:44.929Z,1017.17
2017-12-08T11:18:44.922Z,1017.2
2017-12-08T11:19:44.909Z,1017.29
2017-12-08T11:20:44.902Z,1017.36
2017-12-08T11:21:44.894Z,1017.44
2017-12-08T11:22:44.880Z,1017.53
2017-12-08T11:23:44.878Z,1017.54
2017-12-08T11:24:44.862Z,1017.54
2017-12-08T11:25:44.880Z,1017.59
2017-12-08T11:26:44.844Z,1017.62
2017-12-08T11:27:44.838Z,1017.64
2017-12-08T11:28:44.828Z,1017.64
2017-12-08T11:29:44.813Z,1017.65
2017-12-08T11:30:44.803Z,1017.6
2017-12-08T11:31:44.794Z,1017.58
2017-12-08T11:32:44.789Z,1017.59
2017-12-08T11:33:44.771Z,1017.6
2017-12-08T11:34:44.769Z,1017.65
2017-12-08T11:35:44.751Z,1017.63
2017-12-08T11:36:44.744Z,1017.65
2017-12-08T11:37:44.734Z,1017.68
2017-12-08T11:38:44.724Z,1017.68
2017-12-08T11:39:44.714Z,1017.77
2017-12-08T11:40:44.704Z,1017.83
2017-12-08T11:41:44.694Z,1017.86
2017-12-08T11:42:44.685Z,1017.92
2017-12-08T11:43:44.671Z,1017.95
2017-12-08T11:44:44.663Z,1017.93
2017-12-08T11:45:44.652Z,1017.95
2017-12-08T11:46:44.639Z,1017.96
2017-12-08T11:47:44.632Z,1018.02
2017-12-08T11:48:44.630Z,1018.05
2017-12-08T11:49:44.612Z,1018.03
2017-12-08T11:50:44.610Z,1018.08
2017-12-08T11:51:44.796Z,1018.17
2017-12-08T11:52:44.579Z,1018.1
2017-12-08T11:53:44.571Z,1018.1
2017-12-08T11:54:44.568Z,1018.1
2017-12-08T11:55:44.550Z,1018.09
2017-12-08T11:56:44.566Z,1018.11
2017-12-08T11:57:44.526Z,1018.09
2017-12-08T11:58:44.516Z,1018.07
2017-12-08T11:59:44.505Z,1018.06
2017-12-08T12:00:44.497Z,1017.98
2017-12-08T12:01:44.486Z,1017.95
2017-12-08T12:02:44.473Z,1017.93
2017-12-08T12:03:44.462Z,1017.89
2017-12-08T12:04:44.455Z,1017.9
2017-12-08T12:05:44.443Z,1017.84
2017-12-08T12:06:44.430Z,1017.89
2017-12-08T12:07:44.423Z,1017.93
2017-12-08T12:08:44.409Z,1017.91